TimePDT,TemperatureF,Dew PointF,Humidity,Sea Level PressureIn,VisibilityMPH,Wind Direction,Wind SpeedMPH,Gust SpeedMPH,PrecipitationIn,Events,Conditions,WindDirDegrees,DateUTC
12:53 AM,52.0,33.1,49,29.87,10.0,South,11.5,-,N/A,,Clear,180,2012-10-31 07:53:00
1:53 AM,51.1,32.0,48,29.86,10.0,South,4.6,-,N/A,,Clear,170,2012-10-31 08:53:00
2:53 AM,48.0,32.0,54,29.86,10.0,NE,6.9,-,N/A,,Clear,50,2012-10-31 09:53:00
3:53 AM,48.0,33.1,56,29.84,10.0,ESE,4.6,-,N/A,,Clear,120,2012-10-31 10:53:00
4:53 AM,48.0,33.1,56,29.82,10.0,SSE,9.2,-,N/A,,Clear,150,2012-10-31 11:53:00
5:53 AM,51.1,30.9,46,29.81,10.0,South,15.0,21.9,N/A,,Clear,170,2012-10-31 12:53:00
6:01 AM,51.8,30.2,44,29.88,7.0,SE,10.4,24.2,N/A,,Mostly Cloudy,140,2012-10-31 13:01:00
6:53 AM,51.1,33.1,50,29.82,7.0,South,18.4,24.2,N/A,,Mostly Cloudy,170,2012-10-31 13:53:00
7:53 AM,50.0,37.0,61,29.81,7.0,South,23.0,29.9,N/A,,Mostly Cloudy,170,2012-10-31 14:53:00
8:53 AM,51.1,37.0,59,29.84,10.0,South,19.6,26.5,N/A,,Mostly Cloudy,170,2012-10-31 15:53:00
9:53 AM,53.1,37.0,55,29.81,10.0,South,25.3,34.5,N/A,,Mostly Cloudy,170,2012-10-31 16:53:00
10:53 AM,54.0,37.0,53,29.81,10.0,South,23.0,33.4,N/A,,Mostly Cloudy,170,2012-10-31 17:53:00
12:53 PM,55.9,35.1,45,29.78,10.0,SSW,25.3,38.0,N/A,,Mostly Cloudy,200,2012-10-31 19:53:00
1:53 PM,54.0,36.0,51,29.78,10.0,SSW,24.2,36.8,N/A,,Overcast,210,2012-10-31 20:53:00
2:10 PM,53.6,39.2,58,29.86,10.0,SW,24.2,34.5,0.00,Rain,Light Rain,220,2012-10-31 21:10:00
2:53 PM,48.0,43.0,83,29.84,6.0,West,10.4,-,0.01,Rain,Rain,280,2012-10-31 21:53:00
3:53 PM,46.9,46.0,97,29.87,5.0,WSW,9.2,-,0.07,Rain,Rain,250,2012-10-31 22:53:00
4:53 PM,45.0,43.0,93,29.88,10.0,WNW,6.9,-,0.06,Rain,Light Rain,290,2012-10-31 23:53:00
5:33 PM,44.6,44.6,100,29.90,10.0,Calm,Calm,-,0.00,,Overcast,0,2012-11-01 00:33:00
5:53 PM,44.1,43.0,96,29.85,10.0,South,12.7,-,0.00,,Mostly Cloudy,170,2012-11-01 00:53:00
6:53 PM,45.0,43.0,93,29.83,10.0,SSW,18.4,24.2,N/A,,Mostly Cloudy,200,2012-11-01 01:53:00
8:53 PM,41.0,37.0,86,29.86,10.0,SSE,8.1,-,N/A,,Scattered Clouds,150,2012-11-01 03:53:00
9:53 PM,42.1,37.0,82,29.86,10.0,South,6.9,-,N/A,,Scattered Clouds,180,2012-11-01 04:53:00
10:53 PM,39.0,36.0,89,29.87,10.0,South,6.9,-,N/A,,Scattered Clouds,190,2012-11-01 05:53:00
11:53 PM,42.1,37.9,85,29.85,10.0,South,10.4,-,N/A,,Overcast,190,2012-11-01 06:53:00